createdAt,value
2022-11-02T00:01:54.617Z,1.75
2022-11-02T00:04:21.909Z,1.40
2022-11-02T00:06:49.143Z,1.67
2022-11-02T00:09:16.244Z,1.90
2022-11-02T00:11:43.406Z,2.05
2022-11-02T00:14:10.707Z,2.45
2022-11-02T00:16:40.221Z,1.27
2022-11-02T00:19:09.686Z,2.45
2022-11-02T00:21:37.865Z,1.25
2022-11-02T00:24:06.627Z,1.20
2022-11-02T00:26:35.438Z,1.10
2022-11-02T00:29:04.270Z,1.60
2022-11-02T00:31:31.583Z,1.80
2022-11-02T00:33:58.778Z,0.95
2022-11-02T00:36:26.238Z,0.90
2022-11-02T00:38:53.421Z,1.10
2022-11-02T00:41:21.336Z,0.98
2022-11-02T00:43:48.576Z,1.13
2022-11-02T00:46:15.690Z,1.45
2022-11-02T00:48:42.792Z,1.20
2022-11-02T00:51:10.966Z,1.30
2022-11-02T00:56:10.532Z,1.45
2022-11-02T00:58:37.726Z,1.05
2022-11-02T01:01:07.095Z,1.25
2022-11-02T01:03:34.333Z,1.08
2022-11-02T01:06:12.274Z,1.00
2022-11-02T01:08:40.698Z,1.45
2022-11-02T01:11:19.903Z,1.38
2022-11-02T01:13:47.519Z,1.63
2022-11-02T01:16:15.272Z,0.90
2022-11-02T01:18:43.791Z,1.15
2022-11-02T01:21:11.133Z,1.42
2022-11-02T01:23:39.745Z,1.10
2022-11-02T01:26:09.324Z,0.80
2022-11-02T01:28:36.801Z,1.58
2022-11-02T01:31:04.342Z,1.00
2022-11-02T01:33:31.591Z,1.65
2022-11-02T01:35:58.887Z,1.77
2022-11-02T01:38:25.980Z,0.90
2022-11-02T01:40:53.069Z,1.15
2022-11-02T01:43:31.348Z,0.85
2022-11-02T01:46:11.756Z,1.50
2022-11-02T01:48:47.721Z,1.20
2022-11-02T01:51:32.875Z,1.27
2022-11-02T01:54:10.074Z,1.40
2022-11-02T01:56:40.307Z,1.23
2022-11-02T01:59:15.788Z,1.10
2022-11-02T02:01:43.104Z,1.10
2022-11-02T02:04:12.921Z,1.42
2022-11-02T02:06:41.795Z,1.10
2022-11-02T02:09:10.377Z,1.27
2022-11-02T02:11:39.539Z,1.38
2022-11-02T02:14:15.465Z,0.95
2022-11-02T02:16:49.447Z,1.10
2022-11-02T02:19:40.918Z,1.25
2022-11-02T02:22:31.143Z,2.33
2022-11-02T02:25:04.378Z,1.23
2022-11-02T02:27:50.274Z,0.88
2022-11-02T02:30:18.602Z,1.35
2022-11-02T02:32:53.419Z,2.05
2022-11-02T02:35:59.609Z,1.40
2022-11-02T02:38:42.851Z,1.58
2022-11-02T02:41:34.286Z,0.90
2022-11-02T02:44:06.033Z,1.67
2022-11-02T02:46:50.978Z,2.63
2022-11-02T02:49:25.909Z,1.20
2022-11-02T02:51:55.903Z,1.80
2022-11-02T02:54:32.551Z,1.17
2022-11-02T02:57:07.657Z,1.30
2022-11-02T02:59:41.141Z,1.52
2022-11-02T03:02:32.663Z,1.98
2022-11-02T03:05:00.128Z,1.85
2022-11-02T03:07:34.186Z,1.48
2022-11-02T03:10:42.833Z,1.75
2022-11-02T03:13:31.627Z,1.73
2022-11-02T03:16:06.602Z,1.60
2022-11-02T03:18:58.315Z,2.08
2022-11-02T03:21:38.159Z,1.30
2022-11-02T03:24:09.550Z,1.48
2022-11-02T03:27:15.084Z,2.60
2022-11-02T03:30:05.416Z,1.15
2022-11-02T03:32:39.165Z,1.13
2022-11-02T03:35:15.580Z,1.30
2022-11-02T03:37:51.604Z,1.42
2022-11-02T03:40:28.581Z,3.13
2022-11-02T03:42:57.963Z,1.20
2022-11-02T03:45:30.103Z,2.30
2022-11-02T03:48:07.551Z,1.38
2022-11-02T03:50:37.645Z,1.70
2022-11-02T03:53:12.690Z,1.80
2022-11-02T03:55:46.118Z,1.73
2022-11-02T03:58:13.357Z,1.50
2022-11-02T04:00:54.228Z,1.80
2022-11-02T04:03:23.870Z,1.73
2022-11-02T04:05:52.178Z,1.50
2022-11-02T04:08:39.239Z,1.83
2022-11-02T04:11:28.142Z,1.73
2022-11-02T04:14:18.769Z,1.70
2022-11-02T04:16:46.198Z,1.65
2022-11-02T04:19:27.821Z,2.45
2022-11-02T04:22:17.462Z,2.17
2022-11-02T04:25:06.291Z,2.88
2022-11-02T04:27:34.456Z,1.60
2022-11-02T04:30:01.890Z,1.50
2022-11-02T04:33:00.197Z,1.85
2022-11-02T04:35:31.511Z,1.27
2022-11-02T04:38:18.482Z,1.27
2022-11-02T04:40:46.367Z,1.70
2022-11-02T04:43:14.292Z,1.30
2022-11-02T04:45:41.645Z,1.23
2022-11-02T04:48:10.208Z,1.58
2022-11-02T04:50:38.629Z,1.38
2022-11-02T04:53:07.684Z,1.50
2022-11-02T04:55:36.071Z,1.98
2022-11-02T04:58:03.962Z,1.67
2022-11-02T05:00:32.035Z,1.95
2022-11-02T05:02:59.378Z,1.65
2022-11-02T05:05:27.113Z,1.45
2022-11-02T05:07:57.997Z,1.17
2022-11-02T05:10:25.358Z,2.13
2022-11-02T05:12:58.521Z,1.92
2022-11-02T05:15:29.242Z,2.00
2022-11-02T05:17:56.729Z,1.67
2022-11-02T05:20:23.902Z,1.55
2022-11-02T05:22:51.059Z,1.50
2022-11-02T05:25:20.095Z,1.20
2022-11-02T05:27:47.250Z,1.40
2022-11-02T05:30:14.813Z,1.40
2022-11-02T05:32:44.040Z,1.40
2022-11-02T05:35:11.366Z,2.03
2022-11-02T05:37:39.417Z,2.28
2022-11-02T05:40:08.717Z,1.80
2022-11-02T05:42:36.570Z,1.80
2022-11-02T05:45:03.932Z,1.58
2022-11-02T05:47:31.150Z,1.88
2022-11-02T05:49:58.256Z,1.77
2022-11-02T05:52:25.482Z,2.05
2022-11-02T05:54:52.567Z,1.77
2022-11-02T05:57:19.726Z,2.30
2022-11-02T05:59:49.323Z,1.60
2022-11-02T06:02:16.803Z,1.95
2022-11-02T06:04:43.931Z,1.70
2022-11-02T06:07:11.074Z,2.05
2022-11-02T06:09:38.192Z,2.33
2022-11-02T06:12:05.668Z,2.30
2022-11-02T06:14:32.796Z,1.67
2022-11-02T06:16:59.956Z,1.90
2022-11-02T06:19:27.011Z,2.55
2022-11-02T06:21:54.144Z,1.60
2022-11-02T06:24:21.257Z,2.35
2022-11-02T06:26:49.034Z,2.13
2022-11-02T06:29:16.318Z,1.48
2022-11-02T06:31:43.745Z,1.77
2022-11-02T06:34:10.817Z,2.85
2022-11-02T06:36:37.966Z,1.50
2022-11-02T06:39:05.124Z,1.48
2022-11-02T06:41:32.242Z,1.38
2022-11-02T06:43:59.312Z,1.80
2022-11-02T06:46:26.470Z,1.58
2022-11-02T06:48:53.612Z,2.03
2022-11-02T06:51:20.757Z,1.40
2022-11-02T06:53:48.000Z,1.60
2022-11-02T06:56:15.252Z,1.60
2022-11-02T06:58:42.388Z,2.00
2022-11-02T07:01:09.810Z,2.38
2022-11-02T07:03:37.305Z,1.95
2022-11-02T07:06:08.455Z,1.60
2022-11-02T07:08:38.397Z,2.53
2022-11-02T07:11:05.812Z,2.13
2022-11-02T07:13:32.943Z,1.95
2022-11-02T07:16:00.039Z,2.60
2022-11-02T07:18:27.199Z,1.92
2022-11-02T07:20:59.822Z,1.88
2022-11-02T07:23:27.558Z,1.73
2022-11-02T07:25:54.981Z,1.50
2022-11-02T07:28:22.084Z,1.85
2022-11-02T07:30:49.432Z,2.05
2022-11-02T07:33:17.065Z,1.42
2022-11-02T07:35:45.099Z,1.88
2022-11-02T07:38:12.437Z,1.60
2022-11-02T07:40:39.909Z,2.25
2022-11-02T07:43:07.898Z,2.20
2022-11-02T07:45:56.290Z,2.10
2022-11-02T07:48:23.512Z,2.03
2022-11-02T07:50:50.698Z,2.03
2022-11-02T07:53:17.779Z,2.17
2022-11-02T07:55:44.951Z,2.67
2022-11-02T07:58:15.376Z,2.45
2022-11-02T08:00:43.271Z,2.28
2022-11-02T08:03:12.262Z,2.15
2022-11-02T08:05:41.766Z,1.85
2022-11-02T08:08:12.460Z,2.58
2022-11-02T08:10:40.545Z,1.77
2022-11-02T08:13:10.390Z,2.40
2022-11-02T08:15:37.926Z,1.48
2022-11-02T08:18:15.107Z,1.90
2022-11-02T08:20:42.560Z,3.65
2022-11-02T08:23:11.292Z,2.55
2022-11-02T08:25:39.648Z,2.70
2022-11-02T08:28:08.552Z,2.10
2022-11-02T08:30:37.767Z,2.35
2022-11-02T08:33:07.079Z,2.70
2022-11-02T08:35:36.427Z,2.53
2022-11-02T08:38:04.667Z,2.25
2022-11-02T08:40:32.638Z,4.10
2022-11-02T08:43:02.213Z,1.95
2022-11-02T08:45:42.815Z,2.85
2022-11-02T08:48:17.810Z,1.95
2022-11-02T08:50:44.937Z,2.15
2022-11-02T08:53:12.079Z,2.40
2022-11-02T08:55:39.337Z,2.53
2022-11-02T08:58:07.116Z,2.42
2022-11-02T09:00:35.098Z,1.90
2022-11-02T09:03:07.983Z,2.33
2022-11-02T09:05:46.618Z,2.85
2022-11-02T09:08:19.756Z,2.92
2022-11-02T09:10:50.155Z,2.60
2022-11-02T09:13:20.899Z,2.80
2022-11-02T09:15:52.162Z,2.53
2022-11-02T09:18:20.072Z,2.30
2022-11-02T09:20:48.737Z,2.58
2022-11-02T09:23:20.468Z,2.90
2022-11-02T09:25:48.833Z,3.40
2022-11-02T09:28:16.096Z,2.28
2022-11-02T09:30:43.734Z,3.08
2022-11-02T09:33:11.764Z,2.17
2022-11-02T09:35:49.683Z,2.53
2022-11-02T09:38:20.417Z,3.25
2022-11-02T09:40:59.853Z,3.00
2022-11-02T09:43:34.377Z,2.17
2022-11-02T09:46:04.640Z,2.60
2022-11-02T09:48:40.832Z,3.95
2022-11-02T09:51:10.679Z,2.58
2022-11-02T09:53:59.691Z,1.45
2022-11-02T09:56:27.625Z,3.38
2022-11-02T09:59:02.257Z,3.03
2022-11-02T10:02:02.929Z,3.03
2022-11-02T10:04:41.747Z,2.00
2022-11-02T10:07:19.958Z,1.63
2022-11-02T10:09:56.841Z,2.20
2022-11-02T10:12:26.862Z,2.25
2022-11-02T10:15:11.139Z,2.72
2022-11-02T10:17:41.354Z,1.98
2022-11-02T10:20:27.285Z,2.95
2022-11-02T10:23:04.669Z,3.15
2022-11-02T10:25:33.275Z,3.22
2022-11-02T10:28:09.356Z,3.50
2022-11-02T10:30:38.304Z,2.53
2022-11-02T10:33:14.228Z,3.20
2022-11-02T10:36:16.961Z,2.80
2022-11-02T10:39:13.679Z,2.95
2022-11-02T10:42:07.965Z,2.80
2022-11-02T10:44:37.835Z,2.88
2022-11-02T10:47:30.270Z,3.15
2022-11-02T10:50:33.020Z,2.60
2022-11-02T10:55:57.472Z,4.93
2022-11-02T10:58:28.473Z,3.20
2022-11-02T11:01:10.553Z,3.83
2022-11-02T11:03:56.119Z,3.25
2022-11-02T11:06:25.041Z,2.88
2022-11-02T11:08:53.673Z,3.75
2022-11-02T11:12:01.287Z,2.92
2022-11-02T11:20:36.240Z,2.75
2022-11-02T11:23:16.001Z,3.63
2022-11-02T11:25:43.547Z,3.47
2022-11-02T11:28:24.788Z,3.13
2022-11-02T11:31:10.789Z,3.03
2022-11-02T11:33:58.318Z,2.58
2022-11-02T11:36:34.995Z,2.55
2022-11-02T11:39:25.389Z,2.60
2022-11-02T11:41:52.981Z,3.05
2022-11-02T11:44:20.847Z,3.50
2022-11-02T11:46:55.341Z,3.13
2022-11-02T11:50:07.317Z,2.35
2022-11-02T11:52:31.932Z,3.05
2022-11-02T11:55:27.568Z,3.15
2022-11-02T11:58:16.718Z,3.85
2022-11-02T12:00:44.204Z,2.50
2022-11-02T12:03:12.950Z,3.22
2022-11-02T12:06:08.805Z,2.45
2022-11-02T12:08:52.324Z,2.78
2022-11-02T12:11:45.876Z,2.67
2022-11-02T12:14:44.278Z,3.60
2022-11-02T12:17:24.689Z,2.85
2022-11-02T12:20:14.232Z,2.08
2022-11-02T12:22:57.479Z,2.85
2022-11-02T12:25:39.491Z,3.05
2022-11-02T12:28:25.578Z,3.72
2022-11-02T12:30:52.614Z,3.35
2022-11-02T12:33:22.750Z,3.47
2022-11-02T12:36:02.789Z,3.38
2022-11-02T12:39:03.601Z,2.47
2022-11-02T12:41:58.326Z,3.22
2022-11-02T12:44:28.299Z,2.92
2022-11-02T12:47:35.822Z,2.47
2022-11-02T12:50:17.715Z,3.45
2022-11-02T12:52:53.621Z,1.95
2022-11-02T12:55:40.067Z,3.50
2022-11-02T12:58:15.894Z,2.17
2022-11-02T13:00:45.587Z,3.17
2022-11-02T13:03:39.166Z,2.97
2022-11-02T13:06:12.228Z,3.15
2022-11-02T13:08:58.534Z,3.90
2022-11-02T13:11:35.883Z,3.22
2022-11-02T13:14:06.882Z,3.60
2022-11-02T13:16:50.772Z,3.15
2022-11-02T13:19:29.224Z,3.13
2022-11-02T13:21:58.093Z,3.63
2022-11-02T13:24:34.241Z,3.25
2022-11-02T13:29:56.134Z,3.50
2022-11-02T13:32:46.974Z,3.53
2022-11-02T13:35:32.141Z,3.47
2022-11-02T13:38:11.514Z,3.15
2022-11-02T13:40:57.345Z,4.10
2022-11-02T13:43:48.932Z,4.35
2022-11-02T13:46:35.411Z,4.85
2022-11-02T13:49:14.604Z,4.03
2022-11-02T13:51:49.390Z,3.25
2022-11-02T13:54:24.162Z,3.65
2022-11-02T13:56:54.218Z,3.88
2022-11-02T13:59:28.523Z,5.82
2022-11-02T14:01:57.272Z,4.20
2022-11-02T14:04:26.140Z,3.97
2022-11-02T14:07:03.442Z,3.38
2022-11-02T14:09:42.270Z,4.25
2022-11-02T14:12:21.478Z,3.83
2022-11-02T14:15:13.534Z,4.20
2022-11-02T14:18:04.913Z,4.55
2022-11-02T14:20:38.303Z,3.40
2022-11-02T14:23:14.570Z,3.95
2022-11-02T14:25:54.549Z,4.45
2022-11-02T14:28:21.823Z,4.13
2022-11-02T14:31:18.102Z,4.15
2022-11-02T14:34:12.051Z,4.72
2022-11-02T14:36:39.083Z,3.75
2022-11-02T14:39:31.027Z,3.67
2022-11-02T14:42:03.766Z,4.10
2022-11-02T14:45:01.832Z,3.22
2022-11-02T14:47:33.740Z,3.67
2022-11-02T14:50:10.708Z,5.10
2022-11-02T14:52:38.570Z,3.42
2022-11-02T14:55:29.215Z,5.28
2022-11-02T14:58:06.503Z,3.33
2022-11-02T15:00:50.117Z,3.88
2022-11-02T15:03:26.330Z,4.10
2022-11-02T15:06:03.410Z,5.68
2022-11-02T15:08:55.051Z,4.22
2022-11-02T15:12:00.499Z,4.53
2022-11-02T15:14:37.483Z,4.05
2022-11-02T15:17:13.474Z,5.15
2022-11-02T15:19:43.906Z,5.28
2022-11-02T15:22:54.769Z,4.18
2022-11-02T15:25:36.880Z,3.53
2022-11-02T15:28:13.126Z,4.43
2022-11-02T15:30:59.923Z,4.03
2022-11-02T15:33:27.007Z,4.25
2022-11-02T15:35:55.064Z,3.97
2022-11-02T15:38:33.774Z,4.53
2022-11-02T15:41:22.240Z,4.18
2022-11-02T15:47:21.012Z,3.92
2022-11-02T15:50:09.489Z,4.05
2022-11-02T15:53:28.590Z,3.60
2022-11-02T15:56:16.947Z,2.40
2022-11-02T15:59:21.558Z,3.10
2022-11-02T16:02:08.265Z,4.65
2022-11-02T16:04:36.133Z,3.63
2022-11-02T16:07:07.178Z,3.83
2022-11-02T16:09:37.423Z,3.33
2022-11-02T16:12:19.669Z,3.40
2022-11-02T16:14:53.132Z,3.63
2022-11-02T16:17:22.624Z,4.25
2022-11-02T16:19:50.225Z,2.83
2022-11-02T16:22:27.963Z,3.53
2022-11-02T16:24:55.472Z,4.32
2022-11-02T16:27:23.368Z,4.30
2022-11-02T16:29:51.057Z,3.60
2022-11-02T16:32:18.286Z,4.53
2022-11-02T16:34:45.897Z,4.10
2022-11-02T16:37:14.978Z,3.60
2022-11-02T16:39:46.763Z,3.75
2022-11-02T16:42:21.955Z,3.83
2022-11-02T16:44:58.067Z,3.67
2022-11-02T16:47:40.903Z,3.95
2022-11-02T16:50:22.677Z,5.43
2022-11-02T16:53:02.716Z,4.10
2022-11-02T16:55:41.352Z,5.38
2022-11-02T16:58:14.974Z,4.85
2022-11-02T17:00:59.978Z,3.97
2022-11-02T17:03:31.580Z,3.38
2022-11-02T17:06:01.133Z,4.23
2022-11-02T17:08:30.088Z,4.20
2022-11-02T17:10:59.919Z,4.60
2022-11-02T17:13:31.928Z,4.45
2022-11-02T17:16:09.520Z,4.28
2022-11-02T17:18:37.040Z,4.25
2022-11-02T17:21:13.625Z,4.05
2022-11-02T17:23:43.639Z,6.00
2022-11-02T17:26:22.924Z,3.92
2022-11-02T17:28:52.566Z,3.72
2022-11-02T17:31:25.333Z,3.53
2022-11-02T17:33:53.384Z,4.15
2022-11-02T17:36:25.201Z,4.38
2022-11-02T17:38:52.951Z,4.43
2022-11-02T17:41:54.954Z,4.65
2022-11-02T17:44:22.081Z,3.70
2022-11-02T17:46:49.291Z,4.57
2022-11-02T17:49:16.539Z,3.70
2022-11-02T17:51:43.817Z,4.22
2022-11-02T17:54:14.119Z,4.03
2022-11-02T17:56:41.766Z,4.07
2022-11-02T17:59:09.094Z,3.97
2022-11-02T18:01:36.685Z,4.38
2022-11-02T18:04:03.964Z,3.58
2022-11-02T18:06:31.237Z,4.05
2022-11-02T18:09:19.458Z,4.15
2022-11-02T18:11:47.405Z,3.58
2022-11-02T18:14:16.904Z,4.03
2022-11-02T18:16:44.774Z,5.03
2022-11-02T18:19:12.410Z,3.72
2022-11-02T18:21:39.544Z,4.88
2022-11-02T18:24:06.988Z,4.60
2022-11-02T18:26:35.692Z,3.28
2022-11-02T18:29:04.447Z,4.25
2022-11-02T18:31:32.632Z,5.10
2022-11-02T18:34:00.319Z,3.58
2022-11-02T18:36:27.761Z,4.05
2022-11-02T18:38:55.292Z,4.60
2022-11-02T18:41:29.730Z,3.65
2022-11-02T18:44:04.611Z,4.35
2022-11-02T18:46:34.800Z,4.65
2022-11-02T18:49:02.583Z,3.78
2022-11-02T18:51:30.200Z,4.97
2022-11-02T18:54:03.339Z,4.18
2022-11-02T18:56:31.438Z,4.00
2022-11-02T18:58:58.997Z,5.47
2022-11-02T19:01:27.033Z,4.93
2022-11-02T19:03:56.792Z,4.05
2022-11-02T19:06:43.714Z,4.65
2022-11-02T19:09:18.747Z,4.93
2022-11-02T19:11:51.943Z,5.32
2022-11-02T19:14:20.851Z,3.40
2022-11-02T19:16:48.157Z,4.05
2022-11-02T19:19:15.467Z,4.57
2022-11-02T19:21:42.800Z,4.47
2022-11-02T19:24:10.311Z,4.13
2022-11-02T19:26:38.079Z,4.18
2022-11-02T19:29:06.596Z,4.28
2022-11-02T19:31:35.488Z,4.28
2022-11-02T19:34:03.184Z,5.00
2022-11-02T19:36:30.922Z,5.32
2022-11-02T19:38:59.972Z,3.50
2022-11-02T19:41:27.276Z,3.88
2022-11-02T19:43:54.515Z,4.43
2022-11-02T19:46:22.798Z,4.13
2022-11-02T19:48:50.742Z,4.20
2022-11-02T19:51:28.960Z,10.30
2022-11-02T19:53:59.583Z,6.93
2022-11-02T19:56:28.383Z,7.00
2022-11-02T19:58:56.127Z,3.95
2022-11-02T20:01:24.470Z,6.22
2022-11-02T20:03:52.640Z,4.63
2022-11-02T20:06:28.779Z,4.00
2022-11-02T20:08:57.646Z,4.60
2022-11-02T20:11:27.489Z,4.45
2022-11-02T20:13:59.145Z,6.00
2022-11-02T20:16:26.781Z,4.60
2022-11-02T20:18:55.420Z,4.22
2022-11-02T20:21:34.445Z,3.65
2022-11-02T20:24:04.574Z,4.80
2022-11-02T20:26:36.862Z,4.15
2022-11-02T20:31:38.403Z,5.88
2022-11-02T20:34:07.595Z,5.03
2022-11-02T20:36:34.998Z,5.00
2022-11-02T20:39:04.935Z,5.55
2022-11-02T20:41:32.459Z,4.82
2022-11-02T20:43:59.718Z,4.50
2022-11-02T20:46:37.583Z,5.47
2022-11-02T20:49:19.895Z,4.75
2022-11-02T20:51:53.228Z,5.63
2022-11-02T20:54:21.623Z,2.85
2022-11-02T20:56:49.801Z,3.78
2022-11-02T20:59:17.493Z,5.60
2022-11-02T21:01:45.037Z,4.22
2022-11-02T21:04:18.483Z,4.85
2022-11-02T21:06:48.776Z,4.80
2022-11-02T21:09:16.034Z,5.30
2022-11-02T21:12:02.020Z,5.80
2022-11-02T21:14:29.162Z,4.70
2022-11-02T21:16:56.381Z,5.25
2022-11-02T21:19:23.496Z,4.53
2022-11-02T21:21:55.071Z,5.15
2022-11-02T21:24:25.481Z,5.60
2022-11-02T21:26:52.581Z,4.47
2022-11-02T21:29:21.035Z,4.65
2022-11-02T21:31:48.404Z,5.35
2022-11-02T21:34:15.797Z,4.55
2022-11-02T21:36:43.028Z,6.10
2022-11-02T21:39:10.268Z,5.20
2022-11-02T21:41:39.030Z,5.03
2022-11-02T21:44:07.378Z,4.40
2022-11-02T21:46:34.919Z,6.30
2022-11-02T21:49:02.037Z,5.00
2022-11-02T21:51:29.232Z,4.72
2022-11-02T21:53:56.999Z,4.43
2022-11-02T21:56:26.373Z,4.88
2022-11-02T21:58:54.786Z,5.57
2022-11-02T22:01:46.857Z,4.00
2022-11-02T22:04:32.152Z,4.60
2022-11-02T22:07:00.282Z,4.00
2022-11-02T22:09:29.281Z,3.95
2022-11-02T22:12:16.121Z,4.03
2022-11-02T22:14:44.919Z,4.10
2022-11-02T22:17:16.848Z,3.45
2022-11-02T22:19:50.635Z,3.58
2022-11-02T22:22:18.747Z,3.92
2022-11-02T22:24:45.939Z,3.75
2022-11-02T22:27:13.357Z,4.53
2022-11-02T22:29:41.216Z,4.30
2022-11-02T22:32:08.593Z,4.53
2022-11-02T22:34:36.011Z,4.57
2022-11-02T22:37:21.723Z,4.47
2022-11-02T22:39:48.934Z,4.45
2022-11-02T22:42:16.057Z,4.47
2022-11-02T22:44:43.222Z,4.20
2022-11-02T22:47:10.330Z,3.53
2022-11-02T22:49:37.497Z,4.03
2022-11-02T22:52:04.687Z,3.80
2022-11-02T22:54:31.790Z,4.30
2022-11-02T22:56:58.909Z,2.95
2022-11-02T22:59:26.093Z,4.53
2022-11-02T23:01:53.401Z,3.80
2022-11-02T23:04:20.659Z,4.75
2022-11-02T23:06:47.713Z,3.80
2022-11-02T23:09:14.922Z,2.63
2022-11-02T23:11:44.018Z,4.20
2022-11-02T23:14:15.405Z,3.20
2022-11-02T23:16:46.984Z,3.42
2022-11-02T23:19:31.187Z,4.13
2022-11-02T23:22:23.660Z,3.03
2022-11-02T23:25:15.264Z,3.42
2022-11-02T23:28:14.820Z,3.75
2022-11-02T23:31:01.044Z,4.03
2022-11-02T23:33:30.393Z,4.28
2022-11-02T23:36:13.074Z,2.95
2022-11-02T23:39:06.137Z,3.72
2022-11-02T23:44:14.691Z,3.88
2022-11-02T23:46:48.738Z,2.90
2022-11-02T23:49:17.616Z,2.40
2022-11-02T23:52:03.264Z,2.50
2022-11-02T23:54:48.756Z,2.30
2022-11-02T23:57:16.052Z,2.60
2022-11-02T23:59:43.197Z,2.33
